Time;durP1;ratioP1;P1;durP2;ratioP2;P2;SDS_P1;SDS_P2;PMS_P1;PMS_P2;Temp;Humidity;BMP_temperature;BMP_pressure;BME280_temperature;BME280_humidity;BME280_pressure;Samples;Min_cycle;Max_cycle;Signal;HPM_P1;HPM_P2
2021/11/03 00:00:52;;;;;;;;;;;8.30;99.90;;;;;;4985851;28;19918;-62
2021/11/03 00:03:17;;;;;;;;;;;8.30;99.90;;;;;;4987988;28;19921;-63
2021/11/03 00:05:47;;;;;;;;;;;8.20;99.90;;;;;;4987313;28;19917;-62
2021/11/03 00:08:23;;;;;;;;;;;8.20;99.90;;;;;;4989485;28;20272;-62
2021/11/03 00:10:49;;;;;;;;;;;8.10;99.90;;;;;;4988357;28;19914;-63
2021/11/03 00:13:15;;;;;;;;;;;8.10;99.90;;;;;;4989322;28;19914;-62
2021/11/03 00:15:41;;;;;;;;;;;8.10;99.90;;;;;;4986343;28;19921;-62
2021/11/03 00:18:07;;;;;;;;;;;8.00;99.90;;;;;;4989354;28;20494;-63
2021/11/03 00:20:33;;;;;;;;;;;8.00;99.90;;;;;;4986983;28;19968;-63
2021/11/03 00:22:58;;;;;;;;;;;7.90;99.90;;;;;;4987432;28;20012;-63
2021/11/03 00:25:24;;;;;;;;;;;7.90;99.90;;;;;;4986121;28;20602;-63
2021/11/03 00:27:50;;;;;;;;;;;7.90;99.90;;;;;;4989804;28;19913;-62
2021/11/03 00:30:15;;;;;;;;;;;7.90;99.90;;;;;;4984813;28;20381;-63
2021/11/03 00:32:41;;;;;;;;;;;7.80;99.90;;;;;;4989301;28;19913;-62
2021/11/03 00:35:06;;;;;;;;;;;7.80;99.90;;;;;;4985904;28;19968;-62
2021/11/03 00:37:32;;;;;;;;;;;7.80;99.90;;;;;;4988156;28;19930;-63
2021/11/03 00:39:57;;;;;;;;;;;7.70;99.90;;;;;;4987050;28;20186;-62
2021/11/03 00:42:23;;;;;;;;;;;7.70;99.90;;;;;;4988141;28;19981;-62
2021/11/03 00:44:48;;;;;;;;;;;7.70;99.90;;;;;;4985464;28;19918;-62
2021/11/03 00:47:14;;;;;;;;;;;7.70;99.90;;;;;;4984694;28;19917;-62
2021/11/03 00:49:39;;;;;;;;;;;7.60;99.90;;;;;;4986900;28;20580;-62
2021/11/03 00:52:05;;;;;;;;;;;7.60;99.90;;;;;;4986812;28;20454;-63
2021/11/03 00:54:31;;;;;;;;;;;7.60;99.90;;;;;;4986695;28;19921;-62
2021/11/03 00:56:56;;;;;;;;;;;7.50;99.90;;;;;;4967768;28;20438;-62
2021/11/03 00:59:21;;;;;;;;;;;7.50;99.90;;;;;;4968634;28;19925;-63
2021/11/03 01:01:47;;;;;;;;;;;7.40;99.90;;;;;;4977829;28;20658;-62
2021/11/03 01:04:13;;;;;;;;;;;7.30;99.90;;;;;;4979079;28;19925;-62
2021/11/03 01:06:39;;;;;;;;;;;7.30;99.90;;;;;;4984449;28;19914;-62
2021/11/03 01:09:05;;;;;;;;;;;7.30;99.90;;;;;;4988155;28;19909;-62
2021/11/03 01:11:30;;;;;;;;;;;7.30;99.90;;;;;;4983883;28;19914;-62
2021/11/03 01:13:56;;;;;;;;;;;7.30;99.90;;;;;;4988381;28;19916;-62
2021/11/03 01:16:21;;;;;;;;;;;7.30;99.90;;;;;;4984681;28;19976;-62
2021/11/03 01:18:53;;;;;;;;;;;7.20;99.90;;;;;;4988469;28;20091;-63
2021/11/03 01:21:19;;;;;;;;;;;7.20;99.90;;;;;;4982870;28;20259;-63
2021/11/03 01:23:44;;;;;;;;;;;7.20;99.90;;;;;;4988049;28;19928;-62
2021/11/03 01:26:10;;;;;;;;;;;7.20;99.90;;;;;;4984079;28;19913;-62
2021/11/03 01:28:35;;;;;;;;;;;7.20;99.90;;;;;;4986797;28;19925;-63
2021/11/03 01:31:01;;;;;;;;;;;7.30;99.90;;;;;;4984523;28;20382;-62
2021/11/03 01:33:26;;;;;;;;;;;7.30;99.90;;;;;;4968966;28;19918;-62
2021/11/03 01:35:51;;;;;;;;;;;7.30;99.90;;;;;;4986643;28;20383;-63
2021/11/03 01:38:17;;;;;;;;;;;7.20;99.90;;;;;;4985630;28;20249;-62
2021/11/03 01:40:45;;;;;;;;;;;7.30;99.90;;;;;;4985825;28;19980;-63
2021/11/03 01:43:15;;;;;;;;;;;7.20;99.90;;;;;;4987290;28;19953;-62
2021/11/03 01:45:40;;;;;;;;;;;7.30;99.90;;;;;;4984356;28;19920;-62
2021/11/03 01:48:08;;;;;;;;;;;7.20;99.90;;;;;;4985803;28;19922;-63
2021/11/03 01:50:41;;;;;;;;;;;7.20;99.90;;;;;;4985776;28;19917;-62
2021/11/03 01:53:09;;;;;;;;;;;7.20;99.90;;;;;;4985235;28;20008;-62
2021/11/03 01:55:38;;;;;;;;;;;7.20;99.90;;;;;;4984516;28;20103;-62
2021/11/03 01:58:09;;;;;;;;;;;7.20;99.90;;;;;;4987112;28;20363;-63
2021/11/03 02:00:36;;;;;;;;;;;7.20;99.90;;;;;;4985051;28;19925;-62
2021/11/03 02:03:05;;;;;;;;;;;7.20;99.90;;;;;;4986857;28;19977;-63
2021/11/03 02:05:30;;;;;;;;;;;7.20;99.90;;;;;;4985701;28;19918;-62
2021/11/03 02:07:56;;;;;;;;;;;7.20;99.90;;;;;;4985939;28;19921;-63
2021/11/03 02:10:22;;;;;;;;;;;7.20;99.90;;;;;;4982959;28;19922;-63
2021/11/03 02:12:47;;;;;;;;;;;7.10;99.90;;;;;;4983673;28;19918;-62
2021/11/03 02:15:13;;;;;;;;;;;7.20;99.90;;;;;;4985825;28;19918;-63
2021/11/03 02:17:39;;;;;;;;;;;7.20;99.90;;;;;;4986619;28;19924;-62
2021/11/03 02:20:06;;;;;;;;;;;7.20;99.90;;;;;;4985730;28;19918;-63
2021/11/03 02:22:35;;;;;;;;;;;7.20;99.90;;;;;;4986349;28;20282;-62
2021/11/03 02:25:03;;;;;;;;;;;7.20;99.90;;;;;;4986929;28;20285;-62
2021/11/03 02:27:30;;;;;;;;;;;7.30;99.90;;;;;;4984256;28;20386;-63
2021/11/03 02:29:55;;;;;;;;;;;7.30;99.90;;;;;;4986060;28;19925;-63
2021/11/03 02:32:26;;;;;;;;;;;7.40;99.90;;;;;;4984286;28;19913;-62
2021/11/03 02:34:51;;;;;;;;;;;7.50;99.90;;;;;;4983605;28;19957;-62
2021/11/03 02:37:29;;;;;;;;;;;7.50;99.90;;;;;;4983429;28;19962;-63
2021/11/03 02:39:59;;;;;;;;;;;7.60;99.90;;;;;;4985468;28;19918;-62
2021/11/03 02:42:28;;;;;;;;;;;7.60;99.90;;;;;;4984749;28;19966;-62
2021/11/03 02:44:55;;;;;;;;;;;7.60;99.90;;;;;;4986997;28;19913;-62
2021/11/03 02:47:20;;;;;;;;;;;7.60;99.90;;;;;;4986021;28;19917;-62
2021/11/03 02:49:46;;;;;;;;;;;7.60;99.90;;;;;;4986441;28;19928;-62
2021/11/03 02:52:13;;;;;;;;;;;7.70;99.90;;;;;;4984349;28;19939;-63
2021/11/03 02:54:38;;;;;;;;;;;7.70;99.90;;;;;;4986626;28;19921;-63
2021/11/03 02:57:05;;;;;;;;;;;7.70;99.90;;;;;;4984943;28;20326;-63
2021/11/03 02:59:30;;;;;;;;;;;7.80;99.90;;;;;;4984178;28;20035;-62
2021/11/03 03:01:58;;;;;;;;;;;7.80;99.90;;;;;;4983185;28;19977;-62
2021/11/03 03:04:31;;;;;;;;;;;7.90;99.90;;;;;;4984143;28;19921;-62
2021/11/03 03:06:56;;;;;;;;;;;7.90;99.90;;;;;;4985397;28;19914;-62
2021/11/03 03:09:22;;;;;;;;;;;8.00;99.90;;;;;;4986015;28;20339;-63
2021/11/03 03:11:49;;;;;;;;;;;8.00;99.90;;;;;;4983912;28;20045;-62
2021/11/03 03:14:15;;;;;;;;;;;8.10;99.90;;;;;;4984786;28;19914;-63
2021/11/03 03:16:41;;;;;;;;;;;8.10;99.90;;;;;;4983010;28;19982;-62
2021/11/03 03:19:10;;;;;;;;;;;8.10;99.90;;;;;;4985413;28;20008;-63
2021/11/03 03:21:36;;;;;;;;;;;8.20;99.90;;;;;;4984724;28;19964;-62
2021/11/03 03:24:02;;;;;;;;;;;8.10;99.90;;;;;;4967268;28;19918;-62
2021/11/03 03:26:28;;;;;;;;;;;8.10;99.90;;;;;;4982329;28;20020;-62
2021/11/03 03:28:54;;;;;;;;;;;8.20;99.90;;;;;;4985669;28;20010;-62
2021/11/03 03:31:20;;;;;;;;;;;8.20;99.90;;;;;;4986630;28;19933;-62
2021/11/03 03:33:46;;;;;;;;;;;8.10;99.90;;;;;;4986040;28;19918;-62
2021/11/03 03:36:12;;;;;;;;;;;8.10;99.90;;;;;;4985341;28;20340;-62
2021/11/03 03:38:38;;;;;;;;;;;8.10;99.90;;;;;;4987462;28;19920;-62
2021/11/03 03:41:03;;;;;;;;;;;8.10;99.90;;;;;;4986832;28;19964;-62
2021/11/03 03:43:29;;;;;;;;;;;8.10;99.90;;;;;;4986856;28;19976;-62
2021/11/03 03:45:54;;;;;;;;;;;8.10;99.90;;;;;;4985807;28;20437;-62
2021/11/03 03:48:19;;;;;;;;;;;8.00;99.90;;;;;;4987046;28;19914;-62
2021/11/03 03:50:45;;;;;;;;;;;8.00;99.90;;;;;;4985081;28;20398;-62
2021/11/03 03:53:10;;;;;;;;;;;8.00;99.90;;;;;;4987041;28;19916;-62
2021/11/03 03:55:38;;;;;;;;;;;8.00;99.90;;;;;;4986858;28;19975;-62
2021/11/03 03:58:03;;;;;;;;;;;7.90;99.90;;;;;;4986665;28;19918;-62
2021/11/03 04:00:29;;;;;;;;;;;7.90;99.90;;;;;;4984899;28;19914;-62
2021/11/03 04:02:55;;;;;;;;;;;7.90;99.90;;;;;;4987410;28;20019;-62
2021/11/03 04:05:21;;;;;;;;;;;7.80;99.90;;;;;;4985282;28;20028;-62
2021/11/03 04:07:47;;;;;;;;;;;7.80;99.90;;;;;;4986827;28;20027;-63
2021/11/03 04:10:14;;;;;;;;;;;7.80;99.90;;;;;;4985725;28;20341;-62
2021/11/03 04:12:40;;;;;;;;;;;7.80;99.90;;;;;;4986457;28;20386;-63
2021/11/03 04:15:07;;;;;;;;;;;7.80;99.90;;;;;;4984723;28;19917;-62
2021/11/03 04:17:32;;;;;;;;;;;7.80;99.90;;;;;;4986465;28;19969;-63
2021/11/03 04:19:57;;;;;;;;;;;7.80;99.90;;;;;;4986115;28;20397;-63
2021/11/03 04:22:23;;;;;;;;;;;7.80;99.90;;;;;;4985098;28;19917;-63
2021/11/03 04:24:49;;;;;;;;;;;7.80;99.90;;;;;;4983090;28;19920;-63
2021/11/03 04:27:14;;;;;;;;;;;7.80;99.90;;;;;;4983792;28;20201;-63
2021/11/03 04:29:40;;;;;;;;;;;7.80;99.90;;;;;;4984439;28;20015;-63
2021/11/03 04:32:05;;;;;;;;;;;7.80;99.90;;;;;;4987469;28;20947;-63
2021/11/03 04:34:31;;;;;;;;;;;7.80;99.90;;;;;;4988097;28;19924;-62
2021/11/03 04:36:56;;;;;;;;;;;7.70;99.90;;;;;;4988084;28;19960;-63
2021/11/03 04:39:22;;;;;;;;;;;7.70;99.90;;;;;;4985609;28;20297;-63
2021/11/03 04:41:47;;;;;;;;;;;7.70;99.90;;;;;;4988884;28;20350;-63
2021/11/03 04:44:13;;;;;;;;;;;7.60;99.90;;;;;;4988023;28;20341;-63
2021/11/03 04:46:39;;;;;;;;;;;7.50;99.90;;;;;;4988276;28;20271;-62
2021/11/03 04:49:05;;;;;;;;;;;7.50;99.90;;;;;;4987935;28;19921;-62
2021/11/03 04:51:31;;;;;;;;;;;7.50;99.90;;;;;;4988057;28;20323;-62
2021/11/03 04:53:56;;;;;;;;;;;7.40;99.90;;;;;;4986845;28;20021;-62
2021/11/03 04:56:23;;;;;;;;;;;7.40;99.90;;;;;;4985808;28;20944;-62
2021/11/03 04:58:51;;;;;;;;;;;7.30;99.90;;;;;;4987560;28;20410;-62
2021/11/03 05:01:20;;;;;;;;;;;7.30;99.90;;;;;;4986587;28;19926;-62
2021/11/03 05:03:45;;;;;;;;;;;7.10;99.90;;;;;;5044943;22;19930;-72
2021/11/03 05:06:11;;;;;;;;;;;7.10;99.90;;;;;;5063105;28;20007;-72
2021/11/03 05:08:37;;;;;;;;;;;7.00;99.90;;;;;;5068697;28;20279;-72
2021/11/03 05:11:02;;;;;;;;;;;7.00;99.90;;;;;;5066043;28;19913;-72
2021/11/03 05:13:28;;;;;;;;;;;6.90;99.90;;;;;;5062884;28;19908;-72
2021/11/03 05:15:53;;;;;;;;;;;6.90;99.90;;;;;;5059020;28;19939;-72
2021/11/03 05:18:19;;;;;;;;;;;6.80;99.90;;;;;;5059589;28;20368;-72
2021/11/03 05:20:45;;;;;;;;;;;6.80;99.90;;;;;;5057164;28;20303;-72
2021/11/03 05:23:10;;;;;;;;;;;6.80;99.90;;;;;;5057810;28;20339;-72
2021/11/03 05:25:35;;;;;;;;;;;6.90;99.90;;;;;;5057317;28;19959;-72
2021/11/03 05:28:01;;;;;;;;;;;6.90;99.90;;;;;;5059623;28;19917;-72
2021/11/03 05:30:27;;;;;;;;;;;6.90;99.90;;;;;;5058246;28;20453;-71
2021/11/03 05:32:53;;;;;;;;;;;6.80;99.90;;;;;;5057689;28;19920;-71
2021/11/03 05:35:18;;;;;;;;;;;6.70;99.90;;;;;;5057982;28;19943;-72
2021/11/03 05:37:45;;;;;;;;;;;6.70;99.90;;;;;;5042238;28;19920;-72
2021/11/03 05:40:15;;;;;;;;;;;6.70;99.90;;;;;;5058373;28;19916;-71
2021/11/03 05:42:41;;;;;;;;;;;6.70;99.90;;;;;;5056514;28;20303;-71
2021/11/03 05:45:06;;;;;;;;;;;6.60;99.90;;;;;;5056743;28;20015;-68
2021/11/03 05:47:32;;;;;;;;;;;6.60;99.90;;;;;;5057822;28;19921;-68
2021/11/03 05:49:58;;;;;;;;;;;6.60;99.90;;;;;;5057399;28;19912;-72
2021/11/03 05:52:24;;;;;;;;;;;6.60;99.90;;;;;;5038518;28;20303;-67
2021/11/03 05:54:50;;;;;;;;;;;6.60;99.90;;;;;;5059786;28;19919;-71
2021/11/03 05:57:26;;;;;;;;;;;6.60;99.90;;;;;;5036686;28;19917;-71
2021/11/03 05:59:52;;;;;;;;;;;6.60;99.90;;;;;;5057593;28;19916;-71
2021/11/03 06:02:18;;;;;;;;;;;6.50;99.90;;;;;;5056584;28;19920;-71
2021/11/03 06:04:43;;;;;;;;;;;6.50;99.90;;;;;;5056482;28;19928;-71
2021/11/03 06:07:10;;;;;;;;;;;6.50;99.90;;;;;;5058079;28;19958;-71
2021/11/03 06:09:35;;;;;;;;;;;6.50;99.90;;;;;;5055771;28;19916;-69
2021/11/03 06:12:01;;;;;;;;;;;6.40;99.90;;;;;;5058783;28;20414;-68
2021/11/03 06:14:26;;;;;;;;;;;6.40;99.90;;;;;;5056712;28;19968;-68
2021/11/03 06:16:51;;;;;;;;;;;6.40;99.90;;;;;;5057349;28;19921;-69
2021/11/03 06:19:17;;;;;;;;;;;6.40;99.90;;;;;;5040381;28;19916;-71
2021/11/03 06:21:42;;;;;;;;;;;6.40;99.90;;;;;;5057241;28;20382;-70
2021/11/03 06:24:08;;;;;;;;;;;6.30;99.90;;;;;;5055033;28;19988;-70
2021/11/03 06:26:34;;;;;;;;;;;6.30;99.90;;;;;;5039019;28;20383;-70
2021/11/03 06:28:59;;;;;;;;;;;6.30;99.90;;;;;;5055185;28;19919;-70
2021/11/03 06:31:24;;;;;;;;;;;6.30;99.90;;;;;;5056341;28;19921;-70
2021/11/03 06:33:50;;;;;;;;;;;6.30;99.90;;;;;;5040244;28;20062;-71
2021/11/03 06:36:16;;;;;;;;;;;6.30;99.90;;;;;;5056432;28;19936;-71
2021/11/03 06:38:43;;;;;;;;;;;6.30;99.90;;;;;;5040330;28;21379;-71
2021/11/03 06:41:09;;;;;;;;;;;6.30;99.90;;;;;;5057016;28;19943;-71
2021/11/03 06:43:35;;;;;;;;;;;6.20;99.90;;;;;;5054242;28;20263;-71
2021/11/03 06:46:00;;;;;;;;;;;6.20;99.90;;;;;;5056585;28;20299;-71
2021/11/03 06:48:25;;;;;;;;;;;6.20;99.90;;;;;;5056597;28;19916;-71
2021/11/03 06:50:51;;;;;;;;;;;6.20;99.90;;;;;;5056100;28;20267;-69
2021/11/03 06:53:19;;;;;;;;;;;6.20;99.90;;;;;;5055680;28;19917;-71
2021/11/03 06:55:46;;;;;;;;;;;6.30;99.90;;;;;;5038953;28;20319;-69
2021/11/03 06:58:12;;;;;;;;;;;6.30;99.90;;;;;;5057689;28;19928;-71
2021/11/03 07:00:39;;;;;;;;;;;6.30;99.90;;;;;;5055296;28;19916;-70
2021/11/03 07:03:05;;;;;;;;;;;6.40;99.90;;;;;;5037101;28;20423;-70
2021/11/03 07:05:31;;;;;;;;;;;6.40;99.90;;;;;;5055398;28;19913;-71
2021/11/03 07:07:57;;;;;;;;;;;6.50;99.90;;;;;;5055532;28;19912;-70
2021/11/03 07:10:24;;;;;;;;;;;6.40;99.90;;;;;;5054354;28;19923;-71
2021/11/03 07:12:50;;;;;;;;;;;6.50;99.90;;;;;;5053030;28;19913;-70
2021/11/03 07:15:15;;;;;;;;;;;6.50;99.90;;;;;;5056215;28;19978;-71
2021/11/03 07:17:41;;;;;;;;;;;6.50;99.90;;;;;;5035528;28;19921;-71
2021/11/03 07:20:07;;;;;;;;;;;6.60;99.90;;;;;;5023617;28;19921;-70
2021/11/03 07:22:32;;;;;;;;;;;6.60;99.90;;;;;;5038941;28;19971;-71
2021/11/03 07:24:58;;;;;;;;;;;6.60;99.90;;;;;;5039500;28;20115;-71
2021/11/03 07:27:23;;;;;;;;;;;6.70;99.90;;;;;;5038322;28;19978;-71
2021/11/03 07:29:49;;;;;;;;;;;6.70;99.90;;;;;;5039789;28;19924;-71
2021/11/03 07:32:15;;;;;;;;;;;6.80;99.90;;;;;;5054939;28;19954;-71
2021/11/03 07:34:41;;;;;;;;;;;6.80;99.90;;;;;;5056235;28;19916;-66
2021/11/03 07:37:06;;;;;;;;;;;6.90;99.90;;;;;;5054911;28;19919;-66
2021/11/03 07:39:32;;;;;;;;;;;7.00;99.90;;;;;;5056160;28;20259;-64
2021/11/03 07:41:58;;;;;;;;;;;7.10;99.90;;;;;;5055840;28;19958;-69
2021/11/03 07:44:23;;;;;;;;;;;7.20;99.90;;;;;;5056288;28;19916;-68
2021/11/03 07:46:49;;;;;;;;;;;7.30;99.90;;;;;;5055720;28;19998;-69
2021/11/03 07:49:14;;;;;;;;;;;7.30;99.90;;;;;;5052822;28;19924;-69
2021/11/03 07:51:40;;;;;;;;;;;7.40;99.90;;;;;;5053673;28;19913;-68
2021/11/03 07:54:05;;;;;;;;;;;7.50;99.90;;;;;;5054441;28;19916;-68
2021/11/03 07:56:32;;;;;;;;;;;7.50;99.90;;;;;;5056139;28;20368;-69
2021/11/03 07:58:58;;;;;;;;;;;7.60;99.90;;;;;;5055974;28;20331;-69
2021/11/03 08:01:23;;;;;;;;;;;7.60;99.90;;;;;;5055324;28;19960;-68
2021/11/03 08:03:50;;;;;;;;;;;7.70;99.90;;;;;;5056056;28;20267;-68
2021/11/03 08:06:15;;;;;;;;;;;7.70;99.90;;;;;;5055827;28;19916;-68
2021/11/03 08:08:49;;;;;;;;;;;7.70;99.90;;;;;;5060269;28;19912;-69
2021/11/03 08:11:15;;;;;;;;;;;7.70;99.90;;;;;;5058939;28;19913;-69
2021/11/03 08:13:41;;;;;;;;;;;7.70;99.90;;;;;;5060960;28;19984;-69
2021/11/03 08:16:08;;;;;;;;;;;7.80;99.90;;;;;;5060478;28;20370;-69
2021/11/03 08:18:41;;;;;;;;;;;7.80;99.90;;;;;;5060709;28;20263;-69
2021/11/03 08:21:07;;;;;;;;;;;7.90;99.90;;;;;;5060026;28;19921;-69
2021/11/03 08:23:32;;;;;;;;;;;7.90;99.90;;;;;;5059011;28;20318;-69
2021/11/03 08:25:58;;;;;;;;;;;8.00;99.90;;;;;;5056558;28;19921;-69
2021/11/03 08:28:23;;;;;;;;;;;8.00;99.90;;;;;;5040746;28;19921;-69
2021/11/03 08:30:51;;;;;;;;;;;8.00;99.90;;;;;;5059146;28;19939;-69
2021/11/03 08:33:19;;;;;;;;;;;8.00;99.90;;;;;;5058641;28;19985;-69
2021/11/03 08:35:46;;;;;;;;;;;8.00;99.90;;;;;;5057938;28;19958;-70
2021/11/03 08:38:16;;;;;;;;;;;8.00;99.90;;;;;;5059312;28;19925;-69
2021/11/03 08:40:44;;;;;;;;;;;8.10;99.90;;;;;;5057396;28;20498;-69
2021/11/03 08:43:12;;;;;;;;;;;8.10;99.90;;;;;;5058495;28;20339;-69
2021/11/03 08:45:39;;;;;;;;;;;8.10;99.90;;;;;;5056960;28;22360;-69
2021/11/03 08:48:05;;;;;;;;;;;8.20;99.90;;;;;;5058389;28;19939;-69
2021/11/03 08:50:32;;;;;;;;;;;8.20;99.90;;;;;;5056148;28;19920;-69
2021/11/03 08:52:58;;;;;;;;;;;8.20;99.90;;;;;;5053697;28;19916;-69
2021/11/03 08:55:23;;;;;;;;;;;8.20;99.90;;;;;;5056097;28;19921;-68
2021/11/03 08:57:49;;;;;;;;;;;8.20;99.90;;;;;;5059093;28;19916;-69
2021/11/03 09:00:23;;;;;;;;;;;8.30;99.90;;;;;;5059342;28;19923;-69
2021/11/03 09:02:55;;;;;;;;;;;8.20;99.90;;;;;;5055505;28;20360;-70
2021/11/03 09:05:21;;;;;;;;;;;8.20;99.90;;;;;;5057368;28;19952;-69
2021/11/03 09:07:46;;;;;;;;;;;8.30;99.90;;;;;;5058827;28;19958;-69
2021/11/03 09:10:13;;;;;;;;;;;8.30;99.90;;;;;;5058456;28;20302;-69
2021/11/03 09:12:39;;;;;;;;;;;8.40;99.90;;;;;;5036723;28;19912;-69
2021/11/03 09:15:05;;;;;;;;;;;8.40;99.90;;;;;;5038637;28;19969;-69
2021/11/03 09:17:31;;;;;;;;;;;8.50;99.90;;;;;;5057663;28;20364;-69
2021/11/03 09:19:56;;;;;;;;;;;8.50;99.90;;;;;;5056259;28;19912;-69
2021/11/03 09:22:22;;;;;;;;;;;8.60;99.90;;;;;;5058713;28;20061;-69
2021/11/03 09:24:48;;;;;;;;;;;8.60;99.90;;;;;;5057563;28;20604;-69
2021/11/03 09:27:14;;;;;;;;;;;8.70;99.90;;;;;;5057666;28;19960;-69
2021/11/03 09:29:41;;;;;;;;;;;8.70;99.90;;;;;;5055903;28;20258;-70
2021/11/03 09:32:11;;;;;;;;;;;8.80;99.90;;;;;;5057748;28;19917;-69
2021/11/03 09:34:37;;;;;;;;;;;8.90;99.90;;;;;;5056365;28;20445;-69
2021/11/03 09:37:03;;;;;;;;;;;8.90;99.90;;;;;;5055868;28;19916;-69
2021/11/03 09:39:29;;;;;;;;;;;8.90;99.80;;;;;;5058799;28;20011;-70
2021/11/03 09:41:54;;;;;;;;;;;8.90;99.80;;;;;;5058539;28;20095;-70
2021/11/03 09:44:30;;;;;;;;;;;8.90;99.70;;;;;;5057970;28;19916;-70
2021/11/03 09:47:15;;;;;;;;;;;9.00;99.70;;;;;;5040487;28;19917;-69
2021/11/03 09:50:01;;;;;;;;;;;9.10;99.70;;;;;;5058063;28;20350;-69
2021/11/03 09:52:29;;;;;;;;;;;9.10;99.70;;;;;;5057232;28;19985;-69
2021/11/03 09:55:07;;;;;;;;;;;9.30;99.70;;;;;;5045818;28;19913;-70
2021/11/03 09:57:46;;;;;;;;;;;9.30;99.60;;;;;;5055057;28;20015;-69
2021/11/03 10:00:32;;;;;;;;;;;9.40;99.50;;;;;;5055985;28;19916;-69
2021/11/03 10:03:09;;;;;;;;;;;9.50;99.40;;;;;;5055519;28;19916;-69
2021/11/03 10:05:49;;;;;;;;;;;9.50;99.30;;;;;;5054904;28;19916;-69
2021/11/03 10:08:16;;;;;;;;;;;9.50;99.10;;;;;;5058225;28;20595;-69
2021/11/03 10:10:50;;;;;;;;;;;9.60;99.00;;;;;;5058195;28;19920;-69
2021/11/03 10:13:27;;;;;;;;;;;9.70;99.10;;;;;;5056203;28;19923;-69
2021/11/03 10:16:04;;;;;;;;;;;9.70;99.00;;;;;;5056066;28;19917;-70
2021/11/03 10:18:31;;;;;;;;;;;9.80;98.90;;;;;;5056569;28;19920;-69
2021/11/03 10:21:17;;;;;;;;;;;9.90;98.90;;;;;;5054823;28;20831;-69
2021/11/03 10:24:00;;;;;;;;;;;10.00;98.80;;;;;;5026408;28;20007;-69
2021/11/03 10:26:28;;;;;;;;;;;10.10;98.70;;;;;;5036082;28;19912;-69
2021/11/03 10:29:11;;;;;;;;;;;10.20;98.70;;;;;;5056917;28;19916;-70
2021/11/03 10:31:41;;;;;;;;;;;10.30;98.60;;;;;;5055279;28;20025;-68
2021/11/03 10:34:19;;;;;;;;;;;10.40;98.60;;;;;;5056322;28;19913;-69
2021/11/03 10:36:45;;;;;;;;;;;10.30;98.30;;;;;;5055562;28;20612;-69
2021/11/03 10:39:18;;;;;;;;;;;10.40;98.30;;;;;;5057796;28;19928;-69
2021/11/03 10:41:44;;;;;;;;;;;10.50;98.50;;;;;;5053935;28;20240;-69
2021/11/03 10:44:23;;;;;;;;;;;10.50;98.30;;;;;;5057202;28;19977;-69
2021/11/03 10:46:53;;;;;;;;;;;10.60;98.30;;;;;;5036031;28;19934;-69
2021/11/03 10:49:23;;;;;;;;;;;10.60;98.10;;;;;;5057133;28;20284;-70
2021/11/03 10:51:56;;;;;;;;;;;10.60;97.60;;;;;;5054598;28;19909;-69
2021/11/03 10:54:21;;;;;;;;;;;10.60;97.70;;;;;;5053398;28;19963;-69
2021/11/03 10:57:14;;;;;;;;;;;10.60;97.90;;;;;;5052330;28;19930;-70
2021/11/03 10:59:46;;;;;;;;;;;10.60;97.80;;;;;;5056100;28;19920;-69
2021/11/03 11:02:19;;;;;;;;;;;10.80;98.00;;;;;;5055653;28;19921;-69
2021/11/03 11:04:46;;;;;;;;;;;10.80;97.80;;;;;;5074871;22;19929;-72
2021/11/03 11:07:17;;;;;;;;;;;10.80;97.70;;;;;;5046369;28;19943;-73
2021/11/03 11:09:56;;;;;;;;;;;10.80;97.60;;;;;;5044051;28;19935;-72
2021/11/03 11:12:33;;;;;;;;;;;10.80;97.50;;;;;;5047220;28;19913;-71
2021/11/03 11:15:01;;;;;;;;;;;10.80;97.60;;;;;;5034084;28;19913;-72
2021/11/03 11:17:29;;;;;;;;;;;10.70;97.50;;;;;;5003604;28;19917;-71
2021/11/03 11:20:13;;;;;;;;;;;10.70;97.00;;;;;;5027037;28;20437;-72
2021/11/03 11:22:47;;;;;;;;;;;10.60;96.90;;;;;;5026956;28;19971;-71
2021/11/03 11:25:15;;;;;;;;;;;10.50;97.00;;;;;;5026414;28;19913;-71
2021/11/03 11:28:03;;;;;;;;;;;10.50;97.30;;;;;;5026911;28;19968;-72
2021/11/03 11:30:32;;;;;;;;;;;10.50;97.20;;;;;;5009953;28;19921;-72
2021/11/03 11:33:16;;;;;;;;;;;10.70;97.50;;;;;;5028217;28;19909;-72
2021/11/03 11:36:00;;;;;;;;;;;10.80;97.20;;;;;;5027152;28;20008;-73
2021/11/03 11:38:34;;;;;;;;;;;10.90;97.10;;;;;;5026467;28;19925;-72
2021/11/03 11:41:05;;;;;;;;;;;11.10;97.00;;;;;;5033659;28;19917;-73
2021/11/03 11:43:36;;;;;;;;;;;11.10;96.00;;;;;;5032645;28;20612;-72
2021/11/03 11:46:04;;;;;;;;;;;11.10;96.20;;;;;;5033534;28;19917;-72
2021/11/03 11:48:38;;;;;;;;;;;11.20;96.50;;;;;;5034449;28;19917;-72
2021/11/03 11:51:10;;;;;;;;;;;11.30;96.20;;;;;;5034664;28;19913;-72
2021/11/03 11:53:47;;;;;;;;;;;11.20;95.70;;;;;;5031807;28;20380;-72
2021/11/03 11:56:14;;;;;;;;;;;11.30;95.90;;;;;;5034269;28;20583;-72
2021/11/03 11:58:42;;;;;;;;;;;11.30;96.10;;;;;;5033317;28;19968;-72
2021/11/03 12:01:10;;;;;;;;;;;11.40;95.60;;;;;;5015708;28;19920;-72
2021/11/03 12:03:36;;;;;;;;;;;11.40;95.30;;;;;;5033921;28;19966;-72
2021/11/03 12:06:06;;;;;;;;;;;11.40;94.80;;;;;;5035336;28;19920;-72
2021/11/03 12:08:56;;;;;;;;;;;11.30;94.70;;;;;;5033931;28;19955;-72
2021/11/03 12:11:25;;;;;;;;;;;11.30;95.20;;;;;;5032714;28;19917;-72
2021/11/03 12:13:50;;;;;;;;;;;11.30;95.00;;;;;;5034220;28;19913;-72
2021/11/03 12:16:25;;;;;;;;;;;11.40;95.40;;;;;;5032460;28;20308;-72
2021/11/03 12:18:55;;;;;;;;;;;11.40;95.20;;;;;;5025958;28;19944;-72
2021/11/03 12:21:24;;;;;;;;;;;11.40;95.00;;;;;;5033798;28;20352;-72
2021/11/03 12:23:51;;;;;;;;;;;11.40;94.80;;;;;;5033438;28;19949;-72
2021/11/03 12:26:26;;;;;;;;;;;11.40;94.70;;;;;;5033192;28;19917;-72
2021/11/03 12:28:56;;;;;;;;;;;11.40;94.90;;;;;;5032651;28;20047;-72
2021/11/03 12:31:25;;;;;;;;;;;11.40;95.10;;;;;;5033323;28;20357;-72
2021/11/03 12:34:02;;;;;;;;;;;11.40;95.00;;;;;;5014971;28;20363;-72
2021/11/03 12:36:28;;;;;;;;;;;11.50;95.20;;;;;;5033064;28;20312;-72
2021/11/03 12:38:55;;;;;;;;;;;11.50;95.20;;;;;;5033609;28;20060;-73
2021/11/03 12:41:22;;;;;;;;;;;11.50;95.10;;;;;;5032649;28;19921;-72
2021/11/03 12:43:50;;;;;;;;;;;11.50;95.00;;;;;;5032167;28;19913;-73
2021/11/03 12:46:18;;;;;;;;;;;11.50;94.90;;;;;;5030598;28;19917;-73
2021/11/03 12:48:43;;;;;;;;;;;11.50;94.40;;;;;;5032354;28;19936;-73
2021/11/03 12:51:17;;;;;;;;;;;11.40;94.50;;;;;;5031416;28;19960;-73
2021/11/03 12:53:50;;;;;;;;;;;11.40;94.80;;;;;;5030844;28;19924;-73
2021/11/03 12:56:20;;;;;;;;;;;11.40;94.90;;;;;;5029854;28;19921;-73
2021/11/03 12:58:47;;;;;;;;;;;11.50;95.00;;;;;;5029191;28;19968;-71
2021/11/03 13:01:25;;;;;;;;;;;11.50;94.90;;;;;;5029954;28;19983;-71
2021/11/03 13:03:53;;;;;;;;;;;11.50;95.00;;;;;;5011226;28;19917;-70
2021/11/03 13:06:19;;;;;;;;;;;11.50;94.70;;;;;;5029596;28;19959;-71
2021/11/03 13:08:45;;;;;;;;;;;11.50;95.00;;;;;;5029366;28;19967;-71
2021/11/03 13:11:11;;;;;;;;;;;11.50;94.90;;;;;;5028327;28;20319;-71
2021/11/03 13:13:43;;;;;;;;;;;11.50;95.10;;;;;;5029800;28;19913;-71
2021/11/03 13:16:15;;;;;;;;;;;11.50;95.30;;;;;;5028839;28;19920;-71
2021/11/03 13:18:42;;;;;;;;;;;11.40;95.20;;;;;;5028727;28;20031;-71
2021/11/03 13:21:13;;;;;;;;;;;11.40;95.40;;;;;;5028345;28;19917;-71
2021/11/03 13:23:40;;;;;;;;;;;11.40;95.40;;;;;;5029645;28;19957;-71
2021/11/03 13:26:10;;;;;;;;;;;11.30;95.40;;;;;;5029006;28;19939;-71
2021/11/03 13:28:44;;;;;;;;;;;11.20;95.70;;;;;;5028093;28;19917;-71
2021/11/03 13:31:15;;;;;;;;;;;11.10;95.60;;;;;;5028153;28;20299;-71
2021/11/03 13:33:42;;;;;;;;;;;11.10;95.50;;;;;;5029051;28;20016;-71
2021/11/03 13:36:22;;;;;;;;;;;11.00;95.80;;;;;;5027626;28;19913;-71
2021/11/03 13:38:52;;;;;;;;;;;10.90;95.90;;;;;;5028447;28;20012;-70
2021/11/03 13:41:25;;;;;;;;;;;10.90;96.20;;;;;;5028481;28;19931;-70
2021/11/03 13:44:10;;;;;;;;;;;10.80;96.20;;;;;;5029402;28;20331;-70
2021/11/03 13:46:36;;;;;;;;;;;10.80;96.40;;;;;;5028112;28;20419;-70
2021/11/03 13:49:08;;;;;;;;;;;10.80;96.60;;;;;;5029052;28;19916;-70
2021/11/03 13:51:39;;;;;;;;;;;10.70;96.70;;;;;;5029304;28;19924;-70
2021/11/03 13:54:20;;;;;;;;;;;10.70;97.00;;;;;;5028867;28;19913;-71
2021/11/03 13:56:48;;;;;;;;;;;10.70;97.20;;;;;;5010812;28;20304;-71
2021/11/03 13:59:17;;;;;;;;;;;10.60;97.20;;;;;;5028922;28;19921;-71
2021/11/03 14:01:47;;;;;;;;;;;10.60;97.30;;;;;;5027378;28;19917;-70
2021/11/03 14:04:15;;;;;;;;;;;10.60;97.40;;;;;;5026032;28;19921;-70
2021/11/03 14:06:47;;;;;;;;;;;10.50;97.60;;;;;;5027490;28;19913;-70
2021/11/03 14:09:15;;;;;;;;;;;10.50;97.60;;;;;;5010778;28;19917;-70
2021/11/03 14:11:42;;;;;;;;;;;10.40;97.70;;;;;;5026232;28;20086;-71
2021/11/03 14:14:09;;;;;;;;;;;10.40;97.90;;;;;;5029262;28;20000;-71
2021/11/03 14:16:52;;;;;;;;;;;10.40;97.90;;;;;;5026577;28;19914;-71
2021/11/03 14:19:24;;;;;;;;;;;10.30;98.30;;;;;;5028021;28;19917;-72
2021/11/03 14:21:50;;;;;;;;;;;10.30;98.30;;;;;;5027626;28;20019;-73
2021/11/03 14:24:15;;;;;;;;;;;10.20;98.40;;;;;;5027895;28;20016;-72
2021/11/03 14:26:41;;;;;;;;;;;10.20;98.40;;;;;;5027305;28;19917;-72
2021/11/03 14:29:06;;;;;;;;;;;10.20;98.50;;;;;;5027688;28;20328;-73
2021/11/03 14:31:32;;;;;;;;;;;10.20;98.60;;;;;;5027781;28;19970;-72